Hudson, KS (67545)

9:10 AM CDT on September 20, 2014 (GMT -0500)
Ellinwood High School | Change Station
CLOSE
Current Station
Personal Weather Station
Location: Ellinwood, KS
Elevation: 1811 ft
Nearby Weather Stations
4.0 Earthquake: Medford, Oklahoma (1 day ago)  

Elev 1811 ft 38.36 °N, 98.58 °W | Updated 0 second ago

Clear
Clear
71.2 °F
Feels Like 71 °F
N
2.9
Wind Variable Wind from South
Gusts 12.1 mph

Today
High -- | Low -- °F
--% Chance of Precip.
Yesterday
High -- | Low -- °F
Precip. -- in
7:20 AM 7:34 PM
Waning Crescent, 12% visible
Pressure 29.97 in
Visibility 10.0 miles
Clouds Clear
Heat Index 71 °F
Dew Point 65 °F
Humidity 81%
Rainfall 0.00 in
Snow Depth Not available.
UV 1.1 out of 12
Pollen 6.30 out of 12
Air Quality Not available.
Flu Activity Not available.
METAR KGBD 201355Z AUTO 21010KT 10SM CLR 21/17 A2997 RMK AO1

More Conditions Fewer Conditions

Pressure 29.97 in
Visibility 10.0 miles
Clouds Clear
Heat Index 71 °F
Dew Point 65 °F
Humidity 81%
Rainfall 0.00 in
Snow Depth Not available.
UV 1.1 out of 12
Pollen 6.30 out of 12
Air Quality Not available.
Flu Activity Not available.
METAR KGBD 201355Z AUTO 21010KT 10SM CLR 21/17 A2997 RMK AO1

More Conditions Fewer Conditions

10-Day Weather Forecast

Almanac

Astronomy

Sep. 20, 2014 Rise Set
Actual Time 7:20 AM CDT 7:34 PM CDT
Civil Twilight 6:54 AM CDT 8:00 PM CDT
Nautical Twilight 6:23 AM CDT 8:31 PM CDT
Astronomical Twilight 5:51 AM CDT 9:02 PM CDT
Moon 4:03 AM CDT 5:36 PM CDT
Length of Visible Light 13h 06m
Length of Day
12h 14m
Tomorrow will be 2m 27s shorter.
Waning Crescent, 12% of the Moon is Illuminated
Today
Waning Crescent
Sep 24
New
Oct 1
First Quarter
Oct 8
Full
Oct 15
Last Quarter

Today's Extremes

State Highs State Lows

Community

WunderPhotos

Upload Photos

1,754,870 photos uploaded!

Nearby

Snow Depth

Station Depth Elevation
No new snow has been reported.

Earthquake Activity

City Distance Mag. Time & Date
Medford, Oklahoma 104 miles 3.2 2:10 AM CDT
2014-09-20
Perry, Oklahoma 155 miles 3.3 12:08 AM CDT
2014-09-19
Cherokee, Oklahoma 103 miles 2.8 10:11 PM CDT
2014-09-18
Medford, Oklahoma 122 miles 4.0 8:31 PM CDT
2014-09-18
Minimum magnitude displayed is 2.5.

Coastal Water Temperatures

Place Temperature
No Stations Reporting

Nearby Weather Stations